ADDS METAR Data INFO
IDs: Format: Raw Decoded Include TAF

Data at: 0045 UTC 22 Oct 2017

KGOO 220035Z AUTO 30004KT 10SM CLR 14/03 A3026 RMK AO1
KGOO 220015Z AUTO 31006KT 10SM CLR 14/03 A3025 RMK AO1
KGOO 212355Z AUTO 31006KT 10SM CLR 15/02 A3025 RMK AO1
KGOO 212335Z AUTO 30007KT 10SM CLR 15/01 A3025 RMK AO1
KGOO 212315Z AUTO 30007KT 10SM CLR 16/00 A3025 RMK AO1
KGOO 212255Z AUTO 30008KT 10SM CLR 17/00 A3025 RMK AO1
KGOO 212235Z AUTO 34006KT 10SM CLR 16/00 A3024 RMK AO1
KGOO 212215Z AUTO 34003KT 10SM CLR 17/00 A3024 RMK AO1
KGOO 212155Z AUTO 26003KT 10SM CLR 17/00 A3025 RMK AO1
KGOO 212135Z AUTO 25003KT 10SM CLR 16/00 A3025 RMK AO1
KGOO 212115Z AUTO 29006KT 10SM CLR 16/00 A3025 RMK AO1
KGOO 212055Z AUTO 24005KT 10SM CLR 16/00 A3025 RMK AO1
KGOO 212035Z AUTO 00000KT 10SM CLR 15/M01 A3026 RMK AO1
KGOO 212015Z AUTO 32004KT 10SM CLR 15/M02 A3026 RMK AO1
KGOO 211955Z AUTO 27003KT 10SM CLR 15/M02 A3026 RMK AO1
KGOO 211935Z AUTO 28004KT 10SM CLR 15/M03 A3026 RMK AO1
KGOO 211915Z AUTO 28004KT 10SM FEW080 15/M03 A3027 RMK AO1
KGOO 211855Z AUTO 00000KT 10SM BKN080 14/M04 A3027 RMK AO1
KGOO 211835Z AUTO 00000KT 10SM BKN080 14/M02 A3026 RMK AO1
KGOO 211815Z AUTO 32005KT 10SM SCT080 13/M02 A3027 RMK AO1
KGOO 211755Z AUTO 00000KT 10SM FEW080 12/M03 A3025 RMK AO1
KGOO 211735Z AUTO 00000KT 10SM CLR 12/M01 A3026 RMK AO1
KGOO 211715Z AUTO 00000KT 10SM CLR 12/02 A3026 RMK AO1
KGOO 211655Z AUTO 00000KT 10SM CLR 12/02 A3025 RMK AO1
KGOO 211635Z AUTO 00000KT 10SM CLR 10/02 A3024 RMK AO1
KGOO 211615Z AUTO 00000KT 10SM CLR 09/01 A3024 RMK AO1
KGOO 211555Z AUTO 00000KT 10SM CLR 08/02 A3023 RMK AO1
KGOO 211535Z AUTO 00000KT 10SM CLR 08/00 A3022 RMK AO1
KGOO 211515Z AUTO 00000KT 10SM CLR 08/M01 A3022 RMK AO1
KGOO 211455Z AUTO 00000KT 10SM CLR 07/M02 A3021 RMK AO1
KGOO 211435Z AUTO 04003KT 10SM CLR 06/M01 A3022 RMK AO1
KGOO 211415Z AUTO 00000KT 10SM CLR 06/M01 A3021 RMK AO1
KGOO 211355Z AUTO 00000KT 10SM CLR 05/00 A3021 RMK AO1
KGOO 211335Z AUTO 00000KT 10SM CLR 06/M01 A3020 RMK AO1
KGOO 211315Z AUTO 00000KT 10SM CLR 06/M01 A3020 RMK AO1
KGOO 211255Z AUTO 00000KT 10SM CLR 05/00 A3019 RMK AO1
KGOO 211235Z AUTO 06004KT 10SM CLR 05/00 A3018 RMK AO1
KGOO 211215Z AUTO 03003KT 10SM CLR 05/00 A3018 RMK AO1
KGOO 211155Z AUTO 04003KT 10SM CLR 05/00 A3017 RMK AO1
KGOO 211135Z AUTO 02004KT 10SM CLR 05/00 A3018 RMK AO1
KGOO 211115Z AUTO 03003KT 10SM CLR 05/00 A3017 RMK AO1
KGOO 211055Z AUTO 00000KT 10SM CLR 05/00 A3016 RMK AO1
KGOO 211035Z AUTO 00000KT 10SM CLR 05/00 A3016 RMK AO1
KGOO 211015Z AUTO 00000KT 10SM CLR 06/00 A3017 RMK AO1
KGOO 210955Z AUTO 05003KT 10SM CLR 05/01 A3016 RMK AO1
KGOO 210935Z AUTO 03003KT 10SM CLR 05/01 A3017 RMK AO1
KGOO 210915Z AUTO 00000KT 10SM CLR 06/00 A3016 RMK AO1
KGOO 210855Z AUTO 00000KT 10SM CLR 05/00 A3016 RMK AO1
KGOO 210835Z AUTO 00000KT 10SM CLR 05/01 A3016 RMK AO1
KGOO 210815Z AUTO 00000KT 10SM CLR 05/00 A3015 RMK AO1
KGOO 210755Z AUTO 00000KT 10SM CLR 06/00 A3015 RMK AO1
KGOO 210735Z AUTO 00000KT 10SM CLR 05/00 A3015 RMK AO1
KGOO 210715Z AUTO 00000KT 10SM CLR 05/01 A3016 RMK AO1
KGOO 210655Z AUTO 02003KT 10SM CLR 04/02 A3016 RMK AO1
KGOO 210635Z AUTO 00000KT 10SM CLR 05/01 A3015 RMK AO1
KGOO 210615Z AUTO 00000KT 10SM CLR 05/01 A3015 RMK AO1
KGOO 210555Z AUTO 00000KT 10SM CLR 05/02 A3015 RMK AO1
KGOO 210535Z AUTO 03004KT 10SM CLR 05/02 A3015 RMK AO1
KGOO 210515Z AUTO 06004KT 10SM CLR 05/02 A3014 RMK AO1
KGOO 210455Z AUTO 06005KT 10SM CLR 06/03 A3013 RMK AO1
KGOO 210435Z AUTO 00000KT 10SM CLR 05/03 A3012 RMK AO1
KGOO 210415Z AUTO 07004KT 10SM CLR 06/03 A3012 RMK AO1
KGOO 210355Z AUTO 00000KT 10SM CLR 06/04 A3012 RMK AO1
KGOO 210335Z AUTO 00000KT 10SM CLR 05/04 A3012 RMK AO1
KGOO 210315Z AUTO 06003KT 10SM CLR 06/04 A3011 RMK AO1
KGOO 210255Z AUTO 00000KT 10SM CLR 06/04 A3011 RMK AO1
KGOO 210235Z AUTO 00000KT 10SM CLR 06/04 A3012 RMK AO1
KGOO 210215Z AUTO 00000KT 10SM CLR 06/04 A3011 RMK AO1
KGOO 210155Z AUTO 00000KT 10SM CLR 07/05 A3011 RMK AO1
KGOO 210135Z AUTO 00000KT 10SM CLR 07/04 A3010 RMK AO1
KGOO 210115Z AUTO 00000KT 10SM CLR 08/04 A3009 RMK AO1
KGOO 210055Z AUTO 00000KT 10SM CLR 08/04 A3009 RMK AO1
KGOO 210035Z AUTO 00000KT 10SM CLR 09/04 A3009 RMK AO1
KGOO 210015Z AUTO 26004KT 10SM CLR 09/03 A3009 RMK AO1
KGOO 202355Z AUTO 27004KT 10SM SCT019 09/04 A3009 RMK AO1
KGOO 202335Z AUTO 00000KT 10SM BKN019 09/03 A3009 RMK AO1
KGOO 202315Z AUTO 24004KT 10SM SCT019 SCT024 09/04 A3008 RMK AO1
KGOO 202255Z AUTO 27008KT 10SM SCT019 BKN028 09/05 A3008 RMK AO1
KGOO 202235Z AUTO 25006KT 10SM BKN017 BKN031 09/05 A3008 RMK AO1
KGOO 202215Z AUTO 23007KT 10SM BKN017 BKN024 OVC029 09/05 A3007 RMK AO1
KGOO 202155Z AUTO 24004KT 10SM FEW017 SCT029 09/05 A3006 RMK AO1
KGOO 202135Z AUTO 00000KT 10SM CLR 09/04 A3006 RMK AO1
KGOO 202115Z AUTO 26006KT 10SM CLR 10/05 A3007 RMK AO1
KGOO 202055Z AUTO 23006KT 10SM BKN019 BKN027 09/04 A3007 RMK AO1
KGOO 202035Z AUTO 00000KT 10SM BKN021 BKN030 OVC035 09/05 A3006 RMK AO1
KGOO 202015Z AUTO 00000KT 10SM BKN028 BKN034 BKN050 09/04 A3006 RMK AO1
KGOO 201955Z AUTO 00000KT 10SM OVC024 09/03 A3006 RMK AO1
KGOO 201935Z AUTO 25006KT 10SM BKN024 OVC031 09/03 A3007 RMK AO1
KGOO 201915Z AUTO 00000KT 10SM SCT024 OVC031 09/03 A3006 RMK AO1
KGOO 201855Z AUTO 23006KT 10SM BKN023 OVC029 09/03 A3006 RMK AO1
KGOO 201835Z AUTO 00000KT 10SM BKN021 08/03 A3006 RMK AO1
KGOO 201815Z AUTO 16003KT 10SM FEW014 08/04 A3006 RMK AO1
KGOO 201755Z AUTO 16004KT 10SM FEW010 08/05 A3006 RMK AO1
KGOO 201735Z AUTO 14003KT 10SM SCT010 08/05 A3006 RMK AO1
KGOO 201715Z AUTO 15005KT 10SM BKN006 BKN010 07/05 A3006 RMK AO1
KGOO 201655Z AUTO 18003KT 10SM OVC005 07/06 A3006 RMK AO1
KGOO 201635Z AUTO 14003KT 10SM BKN002 06/06 A3005 RMK AO1
KGOO 201615Z AUTO 14004KT 10SM OVC003 05/05 A3004 RMK AO1
KGOO 201555Z AUTO 16006KT 10SM OVC002 05/05 A3004 RMK AO1
KGOO 201535Z AUTO 14004KT 1SM OVC001 05/05 A3003 RMK AO1
KGOO 201515Z AUTO 00000KT 1/2SM OVC001 05/05 A3002 RMK AO1
KGOO 201455Z AUTO 15003KT 1SM OVC001 05/05 A3001 RMK AO1
KGOO 201435Z AUTO 00000KT 1/2SM OVC001 05/05 A3000 RMK AO1
KGOO 201415Z AUTO 13004KT 3SM OVC001 05/05 A3000 RMK AO1
KGOO 201355Z AUTO 13004KT 1/2SM OVC001 05/05 A3000 RMK AO1
KGOO 201335Z AUTO 15004KT 3/4SM OVC001 05/05 A2999 RMK AO1
KGOO 201315Z AUTO 00000KT 1/2SM OVC001 05/05 A2998 RMK AO1
KGOO 201255Z AUTO 00000KT 1/2SM OVC001 06/05 A2998 RMK AO1